sensor_id;sensor_type;location;lat;lon;timestamp;P1;durP1;ratioP1;P2;durP2;ratioP2
28724;SDS011;43472;48.980;9.646;2024-01-10T00:02:16;18.13;;;7.60;;
28724;SDS011;43472;48.980;9.646;2024-01-10T00:07:18;18.77;;;8.73;;
28724;SDS011;43472;48.980;9.646;2024-01-10T00:12:20;24.73;;;10.02;;
28724;SDS011;43472;48.980;9.646;2024-01-10T00:17:23;26.60;;;10.48;;
28724;SDS011;43472;48.980;9.646;2024-01-10T00:22:25;19.83;;;8.82;;
28724;SDS011;43472;48.980;9.646;2024-01-10T00:27:27;19.63;;;7.93;;
28724;SDS011;43472;48.980;9.646;2024-01-10T00:32:29;25.02;;;10.32;;
28724;SDS011;43472;48.980;9.646;2024-01-10T00:37:32;33.40;;;12.07;;
28724;SDS011;43472;48.980;9.646;2024-01-10T00:42:33;23.42;;;11.15;;
28724;SDS011;43472;48.980;9.646;2024-01-10T00:47:36;28.55;;;10.68;;
28724;SDS011;43472;48.980;9.646;2024-01-10T00:52:38;21.88;;;9.40;;
28724;SDS011;43472;48.980;9.646;2024-01-10T00:57:40;25.50;;;9.02;;
28724;SDS011;43472;48.980;9.646;2024-01-10T01:02:42;17.98;;;7.97;;
28724;SDS011;43472;48.980;9.646;2024-01-10T01:07:44;20.13;;;8.30;;
28724;SDS011;43472;48.980;9.646;2024-01-10T01:12:46;18.25;;;7.90;;
28724;SDS011;43472;48.980;9.646;2024-01-10T01:17:49;15.80;;;6.82;;
28724;SDS011;43472;48.980;9.646;2024-01-10T01:22:50;17.27;;;6.78;;
28724;SDS011;43472;48.980;9.646;2024-01-10T01:27:52;14.02;;;6.55;;
28724;SDS011;43472;48.980;9.646;2024-01-10T01:32:54;19.17;;;7.88;;
28724;SDS011;43472;48.980;9.646;2024-01-10T01:37:57;15.25;;;7.50;;
28724;SDS011;43472;48.980;9.646;2024-01-10T01:42:58;17.00;;;7.53;;
28724;SDS011;43472;48.980;9.646;2024-01-10T01:48:01;15.70;;;7.32;;
28724;SDS011;43472;48.980;9.646;2024-01-10T01:53:04;16.17;;;7.22;;
28724;SDS011;43472;48.980;9.646;2024-01-10T01:58:05;15.30;;;6.68;;
28724;SDS011;43472;48.980;9.646;2024-01-10T02:03:09;19.60;;;8.88;;
28724;SDS011;43472;48.980;9.646;2024-01-10T02:08:11;17.75;;;7.32;;
28724;SDS011;43472;48.980;9.646;2024-01-10T02:13:14;17.63;;;7.65;;
28724;SDS011;43472;48.980;9.646;2024-01-10T02:18:16;20.00;;;8.50;;
28724;SDS011;43472;48.980;9.646;2024-01-10T02:23:19;16.67;;;7.93;;
28724;SDS011;43472;48.980;9.646;2024-01-10T02:28:21;17.60;;;7.65;;
28724;SDS011;43472;48.980;9.646;2024-01-10T02:33:27;21.63;;;7.97;;
28724;SDS011;43472;48.980;9.646;2024-01-10T02:38:29;17.40;;;7.70;;
28724;SDS011;43472;48.980;9.646;2024-01-10T02:43:31;17.75;;;8.20;;
28724;SDS011;43472;48.980;9.646;2024-01-10T02:48:33;20.23;;;7.65;;
28724;SDS011;43472;48.980;9.646;2024-01-10T02:53:35;15.20;;;7.05;;
28724;SDS011;43472;48.980;9.646;2024-01-10T02:58:37;25.83;;;8.57;;
28724;SDS011;43472;48.980;9.646;2024-01-10T03:03:39;21.25;;;9.60;;
28724;SDS011;43472;48.980;9.646;2024-01-10T03:08:41;16.38;;;7.57;;
28724;SDS011;43472;48.980;9.646;2024-01-10T03:13:43;20.42;;;7.85;;
28724;SDS011;43472;48.980;9.646;2024-01-10T03:18:47;17.65;;;7.45;;
28724;SDS011;43472;48.980;9.646;2024-01-10T03:23:54;19.33;;;8.55;;
28724;SDS011;43472;48.980;9.646;2024-01-10T03:28:57;21.33;;;8.13;;
28724;SDS011;43472;48.980;9.646;2024-01-10T03:33:59;20.25;;;7.47;;
28724;SDS011;43472;48.980;9.646;2024-01-10T03:39:02;19.17;;;8.02;;
28724;SDS011;43472;48.980;9.646;2024-01-10T03:44:04;23.98;;;9.13;;
28724;SDS011;43472;48.980;9.646;2024-01-10T03:49:06;16.67;;;7.53;;
28724;SDS011;43472;48.980;9.646;2024-01-10T03:54:09;19.48;;;8.13;;
28724;SDS011;43472;48.980;9.646;2024-01-10T03:59:10;18.77;;;7.80;;
28724;SDS011;43472;48.980;9.646;2024-01-10T04:04:13;22.58;;;8.52;;
28724;SDS011;43472;48.980;9.646;2024-01-10T04:09:15;18.30;;;7.82;;
28724;SDS011;43472;48.980;9.646;2024-01-10T04:14:17;18.05;;;8.27;;
28724;SDS011;43472;48.980;9.646;2024-01-10T04:19:19;17.80;;;8.10;;
28724;SDS011;43472;48.980;9.646;2024-01-10T04:24:22;18.08;;;7.63;;
28724;SDS011;43472;48.980;9.646;2024-01-10T04:29:24;24.67;;;9.07;;
28724;SDS011;43472;48.980;9.646;2024-01-10T04:34:26;16.70;;;7.88;;
28724;SDS011;43472;48.980;9.646;2024-01-10T04:39:29;16.13;;;8.05;;
28724;SDS011;43472;48.980;9.646;2024-01-10T04:44:31;19.92;;;8.43;;
28724;SDS011;43472;48.980;9.646;2024-01-10T04:49:33;23.08;;;8.85;;
28724;SDS011;43472;48.980;9.646;2024-01-10T04:54:35;22.05;;;8.25;;
28724;SDS011;43472;48.980;9.646;2024-01-10T04:59:37;18.55;;;8.02;;
28724;SDS011;43472;48.980;9.646;2024-01-10T05:04:39;18.13;;;8.75;;
28724;SDS011;43472;48.980;9.646;2024-01-10T05:09:41;21.50;;;9.95;;
28724;SDS011;43472;48.980;9.646;2024-01-10T05:14:43;20.40;;;9.40;;
28724;SDS011;43472;48.980;9.646;2024-01-10T05:19:45;20.70;;;9.40;;
28724;SDS011;43472;48.980;9.646;2024-01-10T05:24:47;17.88;;;9.02;;
28724;SDS011;43472;48.980;9.646;2024-01-10T05:29:49;18.45;;;9.32;;
28724;SDS011;43472;48.980;9.646;2024-01-10T05:34:52;24.10;;;8.93;;
28724;SDS011;43472;48.980;9.646;2024-01-10T05:39:54;22.45;;;8.98;;
28724;SDS011;43472;48.980;9.646;2024-01-10T05:44:57;24.73;;;9.77;;
28724;SDS011;43472;48.980;9.646;2024-01-10T05:49:58;17.35;;;7.78;;
28724;SDS011;43472;48.980;9.646;2024-01-10T05:55:00;19.50;;;8.50;;
28724;SDS011;43472;48.980;9.646;2024-01-10T06:00:04;21.02;;;8.10;;
28724;SDS011;43472;48.980;9.646;2024-01-10T06:05:14;21.05;;;8.75;;
28724;SDS011;43472;48.980;9.646;2024-01-10T06:10:16;20.30;;;8.75;;
28724;SDS011;43472;48.980;9.646;2024-01-10T06:15:18;23.95;;;10.43;;
28724;SDS011;43472;48.980;9.646;2024-01-10T06:20:20;20.13;;;8.73;;
28724;SDS011;43472;48.980;9.646;2024-01-10T06:25:22;22.40;;;9.20;;
28724;SDS011;43472;48.980;9.646;2024-01-10T06:30:24;23.20;;;9.68;;
28724;SDS011;43472;48.980;9.646;2024-01-10T06:35:26;25.83;;;10.30;;
28724;SDS011;43472;48.980;9.646;2024-01-10T06:40:29;23.35;;;10.13;;
28724;SDS011;43472;48.980;9.646;2024-01-10T06:45:31;26.17;;;9.85;;
28724;SDS011;43472;48.980;9.646;2024-01-10T06:50:33;20.60;;;9.10;;
28724;SDS011;43472;48.980;9.646;2024-01-10T06:55:36;21.40;;;9.20;;
28724;SDS011;43472;48.980;9.646;2024-01-10T07:00:38;25.25;;;9.60;;
28724;SDS011;43472;48.980;9.646;2024-01-10T07:05:40;21.27;;;9.35;;
28724;SDS011;43472;48.980;9.646;2024-01-10T07:10:42;23.60;;;9.35;;
28724;SDS011;43472;48.980;9.646;2024-01-10T07:15:43;22.08;;;9.68;;
28724;SDS011;43472;48.980;9.646;2024-01-10T07:20:46;23.33;;;9.60;;
28724;SDS011;43472;48.980;9.646;2024-01-10T07:25:48;20.25;;;10.90;;
28724;SDS011;43472;48.980;9.646;2024-01-10T07:30:51;26.63;;;9.63;;
28724;SDS011;43472;48.980;9.646;2024-01-10T07:35:53;20.02;;;9.60;;
28724;SDS011;43472;48.980;9.646;2024-01-10T07:40:56;21.23;;;9.50;;
28724;SDS011;43472;48.980;9.646;2024-01-10T07:46:00;30.77;;;9.60;;
28724;SDS011;43472;48.980;9.646;2024-01-10T07:51:03;19.85;;;10.10;;
28724;SDS011;43472;48.980;9.646;2024-01-10T07:56:05;27.60;;;9.65;;
28724;SDS011;43472;48.980;9.646;2024-01-10T08:01:08;22.77;;;9.35;;
28724;SDS011;43472;48.980;9.646;2024-01-10T08:06:12;23.00;;;10.38;;
28724;SDS011;43472;48.980;9.646;2024-01-10T08:11:27;22.55;;;10.13;;
28724;SDS011;43472;48.980;9.646;2024-01-10T08:16:29;25.73;;;10.75;;
28724;SDS011;43472;48.980;9.646;2024-01-10T08:21:32;24.50;;;9.82;;
28724;SDS011;43472;48.980;9.646;2024-01-10T08:26:34;23.98;;;11.20;;
28724;SDS011;43472;48.980;9.646;2024-01-10T08:31:37;25.73;;;11.07;;
28724;SDS011;43472;48.980;9.646;2024-01-10T08:36:40;26.77;;;11.57;;
28724;SDS011;43472;48.980;9.646;2024-01-10T08:41:42;26.13;;;11.45;;
28724;SDS011;43472;48.980;9.646;2024-01-10T08:46:45;26.67;;;11.30;;
28724;SDS011;43472;48.980;9.646;2024-01-10T08:51:48;27.02;;;10.40;;
28724;SDS011;43472;48.980;9.646;2024-01-10T08:56:50;28.65;;;11.07;;
28724;SDS011;43472;48.980;9.646;2024-01-10T09:01:52;27.10;;;12.23;;
28724;SDS011;43472;48.980;9.646;2024-01-10T09:06:55;30.58;;;13.35;;
28724;SDS011;43472;48.980;9.646;2024-01-10T09:11:56;26.05;;;12.55;;
28724;SDS011;43472;48.980;9.646;2024-01-10T09:16:58;21.95;;;12.27;;
28724;SDS011;43472;48.980;9.646;2024-01-10T09:22:03;24.23;;;13.13;;
28724;SDS011;43472;48.980;9.646;2024-01-10T09:27:07;23.80;;;13.27;;
28724;SDS011;43472;48.980;9.646;2024-01-10T09:32:08;26.38;;;15.07;;
28724;SDS011;43472;48.980;9.646;2024-01-10T09:37:10;26.63;;;13.43;;
28724;SDS011;43472;48.980;9.646;2024-01-10T09:42:12;29.25;;;13.73;;
28724;SDS011;43472;48.980;9.646;2024-01-10T09:47:16;24.15;;;12.18;;
28724;SDS011;43472;48.980;9.646;2024-01-10T09:52:24;23.33;;;13.15;;
28724;SDS011;43472;48.980;9.646;2024-01-10T09:57:27;27.90;;;13.75;;
28724;SDS011;43472;48.980;9.646;2024-01-10T10:02:28;22.70;;;12.50;;
28724;SDS011;43472;48.980;9.646;2024-01-10T10:12:48;30.70;;;14.63;;
28724;SDS011;43472;48.980;9.646;2024-01-10T10:17:51;23.92;;;13.15;;
28724;SDS011;43472;48.980;9.646;2024-01-10T10:23:02;27.08;;;13.05;;
28724;SDS011;43472;48.980;9.646;2024-01-10T10:28:05;27.52;;;13.30;;
28724;SDS011;43472;48.980;9.646;2024-01-10T10:33:11;27.85;;;12.77;;
28724;SDS011;43472;48.980;9.646;2024-01-10T10:38:12;27.48;;;13.95;;
28724;SDS011;43472;48.980;9.646;2024-01-10T10:43:14;35.22;;;15.02;;
28724;SDS011;43472;48.980;9.646;2024-01-10T10:48:23;32.15;;;13.88;;
28724;SDS011;43472;48.980;9.646;2024-01-10T10:53:27;29.95;;;15.18;;
28724;SDS011;43472;48.980;9.646;2024-01-10T10:58:34;29.58;;;14.32;;
28724;SDS011;43472;48.980;9.646;2024-01-10T11:03:38;34.22;;;15.82;;
28724;SDS011;43472;48.980;9.646;2024-01-10T11:08:50;33.80;;;15.93;;
28724;SDS011;43472;48.980;9.646;2024-01-10T11:19:31;32.33;;;16.40;;
28724;SDS011;43472;48.980;9.646;2024-01-10T11:24:37;26.90;;;14.80;;
28724;SDS011;43472;48.980;9.646;2024-01-10T11:29:40;28.75;;;16.40;;
28724;SDS011;43472;48.980;9.646;2024-01-10T11:34:59;26.05;;;16.48;;
28724;SDS011;43472;48.980;9.646;2024-01-10T11:40:02;26.85;;;17.05;;
28724;SDS011;43472;48.980;9.646;2024-01-10T11:45:04;26.58;;;16.33;;
28724;SDS011;43472;48.980;9.646;2024-01-10T11:50:06;23.83;;;16.02;;
28724;SDS011;43472;48.980;9.646;2024-01-10T11:55:42;24.88;;;16.88;;
28724;SDS011;43472;48.980;9.646;2024-01-10T12:00:53;27.00;;;15.95;;
28724;SDS011;43472;48.980;9.646;2024-01-10T12:05:55;25.35;;;16.33;;
28724;SDS011;43472;48.980;9.646;2024-01-10T12:10:58;24.73;;;16.77;;
28724;SDS011;43472;48.980;9.646;2024-01-10T12:16:00;24.42;;;16.13;;
28724;SDS011;43472;48.980;9.646;2024-01-10T12:21:02;22.75;;;15.25;;
28724;SDS011;43472;48.980;9.646;2024-01-10T12:26:08;24.75;;;16.73;;
28724;SDS011;43472;48.980;9.646;2024-01-10T12:31:13;22.10;;;15.82;;
28724;SDS011;43472;48.980;9.646;2024-01-10T12:36:16;29.13;;;16.08;;
28724;SDS011;43472;48.980;9.646;2024-01-10T12:41:18;27.77;;;16.35;;
28724;SDS011;43472;48.980;9.646;2024-01-10T12:46:21;28.27;;;17.50;;
28724;SDS011;43472;48.980;9.646;2024-01-10T12:51:27;32.35;;;17.52;;
28724;SDS011;43472;48.980;9.646;2024-01-10T12:56:33;31.23;;;17.13;;
28724;SDS011;43472;48.980;9.646;2024-01-10T13:01:36;31.33;;;17.40;;
28724;SDS011;43472;48.980;9.646;2024-01-10T13:06:39;33.90;;;16.75;;
28724;SDS011;43472;48.980;9.646;2024-01-10T13:11:42;28.55;;;14.73;;
28724;SDS011;43472;48.980;9.646;2024-01-10T13:16:44;37.17;;;16.83;;
28724;SDS011;43472;48.980;9.646;2024-01-10T13:21:59;29.05;;;16.95;;
28724;SDS011;43472;48.980;9.646;2024-01-10T13:27:05;34.92;;;17.20;;
28724;SDS011;43472;48.980;9.646;2024-01-10T13:32:08;31.60;;;15.80;;
28724;SDS011;43472;48.980;9.646;2024-01-10T13:37:12;30.63;;;17.33;;
28724;SDS011;43472;48.980;9.646;2024-01-10T13:42:14;29.58;;;15.55;;
28724;SDS011;43472;48.980;9.646;2024-01-10T13:47:19;31.75;;;16.40;;
28724;SDS011;43472;48.980;9.646;2024-01-10T13:52:23;29.70;;;16.35;;
28724;SDS011;43472;48.980;9.646;2024-01-10T13:57:24;28.17;;;16.13;;
28724;SDS011;43472;48.980;9.646;2024-01-10T14:02:26;33.40;;;17.50;;
28724;SDS011;43472;48.980;9.646;2024-01-10T14:07:28;29.02;;;17.33;;
28724;SDS011;43472;48.980;9.646;2024-01-10T14:12:30;27.98;;;18.15;;
28724;SDS011;43472;48.980;9.646;2024-01-10T14:17:32;25.95;;;15.82;;
28724;SDS011;43472;48.980;9.646;2024-01-10T14:22:35;25.30;;;16.85;;
28724;SDS011;43472;48.980;9.646;2024-01-10T14:27:37;24.95;;;17.48;;
28724;SDS011;43472;48.980;9.646;2024-01-10T14:32:40;24.27;;;17.05;;
28724;SDS011;43472;48.980;9.646;2024-01-10T14:37:42;24.95;;;16.25;;
28724;SDS011;43472;48.980;9.646;2024-01-10T14:42:44;25.00;;;17.10;;
28724;SDS011;43472;48.980;9.646;2024-01-10T14:47:47;26.38;;;17.10;;
28724;SDS011;43472;48.980;9.646;2024-01-10T14:52:51;30.13;;;18.60;;
28724;SDS011;43472;48.980;9.646;2024-01-10T14:57:53;33.28;;;19.85;;
28724;SDS011;43472;48.980;9.646;2024-01-10T15:02:55;28.90;;;17.95;;
28724;SDS011;43472;48.980;9.646;2024-01-10T15:07:58;33.33;;;18.80;;
28724;SDS011;43472;48.980;9.646;2024-01-10T15:13:00;32.63;;;17.52;;
28724;SDS011;43472;48.980;9.646;2024-01-10T15:18:03;30.85;;;16.38;;
28724;SDS011;43472;48.980;9.646;2024-01-10T15:23:05;32.47;;;16.98;;
28724;SDS011;43472;48.980;9.646;2024-01-10T15:28:08;43.78;;;22.83;;
28724;SDS011;43472;48.980;9.646;2024-01-10T15:33:10;30.88;;;15.23;;
28724;SDS011;43472;48.980;9.646;2024-01-10T15:38:12;31.52;;;15.50;;
28724;SDS011;43472;48.980;9.646;2024-01-10T15:43:15;29.98;;;13.88;;
28724;SDS011;43472;48.980;9.646;2024-01-10T15:48:17;31.30;;;14.65;;
28724;SDS011;43472;48.980;9.646;2024-01-10T15:53:19;28.58;;;15.20;;
28724;SDS011;43472;48.980;9.646;2024-01-10T15:58:24;33.38;;;15.93;;
28724;SDS011;43472;48.980;9.646;2024-01-10T16:03:29;47.17;;;21.83;;
28724;SDS011;43472;48.980;9.646;2024-01-10T16:08:31;43.70;;;22.30;;
28724;SDS011;43472;48.980;9.646;2024-01-10T16:13:35;38.83;;;18.15;;
28724;SDS011;43472;48.980;9.646;2024-01-10T16:18:37;52.85;;;21.67;;
28724;SDS011;43472;48.980;9.646;2024-01-10T16:23:39;63.22;;;27.48;;
28724;SDS011;43472;48.980;9.646;2024-01-10T16:28:41;35.13;;;18.13;;
28724;SDS011;43472;48.980;9.646;2024-01-10T16:33:43;48.22;;;22.08;;
28724;SDS011;43472;48.980;9.646;2024-01-10T16:38:46;43.17;;;19.10;;
28724;SDS011;43472;48.980;9.646;2024-01-10T16:43:48;43.95;;;20.67;;
28724;SDS011;43472;48.980;9.646;2024-01-10T16:48:50;52.38;;;22.20;;
28724;SDS011;43472;48.980;9.646;2024-01-10T16:53:53;54.58;;;23.88;;
28724;SDS011;43472;48.980;9.646;2024-01-10T16:58:55;40.92;;;19.40;;
28724;SDS011;43472;48.980;9.646;2024-01-10T17:04:00;37.53;;;18.77;;
28724;SDS011;43472;48.980;9.646;2024-01-10T17:09:02;35.65;;;17.48;;
28724;SDS011;43472;48.980;9.646;2024-01-10T17:14:05;39.10;;;18.88;;
28724;SDS011;43472;48.980;9.646;2024-01-10T17:19:08;39.90;;;19.70;;
28724;SDS011;43472;48.980;9.646;2024-01-10T17:24:10;40.72;;;18.42;;
28724;SDS011;43472;48.980;9.646;2024-01-10T17:29:13;38.15;;;18.67;;
28724;SDS011;43472;48.980;9.646;2024-01-10T17:34:15;38.78;;;17.42;;
28724;SDS011;43472;48.980;9.646;2024-01-10T17:39:18;40.50;;;17.35;;
28724;SDS011;43472;48.980;9.646;2024-01-10T17:44:21;66.75;;;28.13;;
28724;SDS011;43472;48.980;9.646;2024-01-10T17:49:23;46.50;;;21.75;;
28724;SDS011;43472;48.980;9.646;2024-01-10T17:54:25;39.90;;;19.48;;
28724;SDS011;43472;48.980;9.646;2024-01-10T17:59:27;45.90;;;21.08;;
28724;SDS011;43472;48.980;9.646;2024-01-10T18:04:30;44.90;;;19.85;;
28724;SDS011;43472;48.980;9.646;2024-01-10T18:09:33;41.05;;;18.20;;
28724;SDS011;43472;48.980;9.646;2024-01-10T18:14:35;36.75;;;16.52;;
28724;SDS011;43472;48.980;9.646;2024-01-10T18:19:38;39.38;;;19.25;;
28724;SDS011;43472;48.980;9.646;2024-01-10T18:24:40;49.95;;;21.30;;
28724;SDS011;43472;48.980;9.646;2024-01-10T18:29:42;47.83;;;21.55;;
28724;SDS011;43472;48.980;9.646;2024-01-10T18:34:44;46.22;;;20.92;;
28724;SDS011;43472;48.980;9.646;2024-01-10T18:39:47;49.95;;;23.10;;
28724;SDS011;43472;48.980;9.646;2024-01-10T18:44:51;47.85;;;22.50;;
28724;SDS011;43472;48.980;9.646;2024-01-10T18:49:53;42.30;;;18.25;;
28724;SDS011;43472;48.980;9.646;2024-01-10T18:54:55;51.40;;;23.67;;
28724;SDS011;43472;48.980;9.646;2024-01-10T18:59:57;48.45;;;21.48;;
28724;SDS011;43472;48.980;9.646;2024-01-10T19:04:59;56.38;;;26.30;;
28724;SDS011;43472;48.980;9.646;2024-01-10T19:10:02;54.03;;;25.60;;
28724;SDS011;43472;48.980;9.646;2024-01-10T19:15:05;49.92;;;23.92;;
28724;SDS011;43472;48.980;9.646;2024-01-10T19:20:07;67.22;;;26.20;;
28724;SDS011;43472;48.980;9.646;2024-01-10T19:25:09;66.15;;;23.80;;
28724;SDS011;43472;48.980;9.646;2024-01-10T19:30:12;52.30;;;24.48;;
28724;SDS011;43472;48.980;9.646;2024-01-10T19:35:22;53.03;;;24.23;;
28724;SDS011;43472;48.980;9.646;2024-01-10T19:40:24;68.88;;;27.63;;
28724;SDS011;43472;48.980;9.646;2024-01-10T19:45:26;56.95;;;23.65;;
28724;SDS011;43472;48.980;9.646;2024-01-10T19:50:28;76.03;;;31.35;;
28724;SDS011;43472;48.980;9.646;2024-01-10T19:55:30;63.88;;;28.02;;
28724;SDS011;43472;48.980;9.646;2024-01-10T20:00:33;57.42;;;26.30;;
28724;SDS011;43472;48.980;9.646;2024-01-10T20:05:35;53.88;;;24.83;;
28724;SDS011;43472;48.980;9.646;2024-01-10T20:10:37;55.75;;;23.92;;
28724;SDS011;43472;48.980;9.646;2024-01-10T20:15:39;54.20;;;24.60;;
28724;SDS011;43472;48.980;9.646;2024-01-10T20:20:42;53.97;;;25.48;;
28724;SDS011;43472;48.980;9.646;2024-01-10T20:25:44;58.08;;;25.92;;
28724;SDS011;43472;48.980;9.646;2024-01-10T20:30:46;54.70;;;22.80;;
28724;SDS011;43472;48.980;9.646;2024-01-10T20:35:50;48.63;;;21.65;;
28724;SDS011;43472;48.980;9.646;2024-01-10T20:40:52;50.65;;;23.42;;
28724;SDS011;43472;48.980;9.646;2024-01-10T20:45:54;49.13;;;24.27;;
28724;SDS011;43472;48.980;9.646;2024-01-10T20:50:56;51.17;;;24.15;;
28724;SDS011;43472;48.980;9.646;2024-01-10T20:55:58;51.08;;;22.77;;
28724;SDS011;43472;48.980;9.646;2024-01-10T21:01:00;54.55;;;22.98;;
28724;SDS011;43472;48.980;9.646;2024-01-10T21:06:04;55.92;;;24.27;;
28724;SDS011;43472;48.980;9.646;2024-01-10T21:11:06;47.97;;;22.40;;
28724;SDS011;43472;48.980;9.646;2024-01-10T21:16:09;54.42;;;22.40;;
28724;SDS011;43472;48.980;9.646;2024-01-10T21:21:11;60.13;;;26.48;;
28724;SDS011;43472;48.980;9.646;2024-01-10T21:26:13;54.60;;;24.48;;
28724;SDS011;43472;48.980;9.646;2024-01-10T21:34:20;48.63;;;21.42;;
28724;SDS011;43472;48.980;9.646;2024-01-10T21:39:23;47.20;;;22.23;;
28724;SDS011;43472;48.980;9.646;2024-01-10T21:44:25;50.05;;;23.38;;
28724;SDS011;43472;48.980;9.646;2024-01-10T21:49:29;51.10;;;21.92;;
28724;SDS011;43472;48.980;9.646;2024-01-10T21:54:31;54.78;;;24.05;;
28724;SDS011;43472;48.980;9.646;2024-01-10T21:59:34;56.75;;;25.20;;
28724;SDS011;43472;48.980;9.646;2024-01-10T22:04:36;53.30;;;24.63;;
28724;SDS011;43472;48.980;9.646;2024-01-10T22:09:39;58.85;;;27.52;;
28724;SDS011;43472;48.980;9.646;2024-01-10T22:14:41;49.22;;;21.63;;
28724;SDS011;43472;48.980;9.646;2024-01-10T22:19:43;48.95;;;20.80;;
28724;SDS011;43472;48.980;9.646;2024-01-10T22:24:45;49.60;;;23.48;;
28724;SDS011;43472;48.980;9.646;2024-01-10T22:29:47;51.13;;;22.30;;
28724;SDS011;43472;48.980;9.646;2024-01-10T22:34:48;54.58;;;24.45;;
28724;SDS011;43472;48.980;9.646;2024-01-10T22:39:51;55.75;;;23.52;;
28724;SDS011;43472;48.980;9.646;2024-01-10T22:44:53;46.15;;;20.38;;
28724;SDS011;43472;48.980;9.646;2024-01-10T22:49:55;49.30;;;20.63;;
28724;SDS011;43472;48.980;9.646;2024-01-10T22:54:57;47.00;;;20.50;;
28724;SDS011;43472;48.980;9.646;2024-01-10T22:59:59;44.33;;;19.60;;
28724;SDS011;43472;48.980;9.646;2024-01-10T23:05:01;51.65;;;21.73;;
28724;SDS011;43472;48.980;9.646;2024-01-10T23:10:04;47.53;;;21.05;;
28724;SDS011;43472;48.980;9.646;2024-01-10T23:15:07;47.80;;;20.63;;
28724;SDS011;43472;48.980;9.646;2024-01-10T23:20:09;46.15;;;21.88;;
28724;SDS011;43472;48.980;9.646;2024-01-10T23:25:12;50.13;;;22.90;;
28724;SDS011;43472;48.980;9.646;2024-01-10T23:30:14;48.05;;;23.75;;
28724;SDS011;43472;48.980;9.646;2024-01-10T23:35:17;46.95;;;19.70;;
28724;SDS011;43472;48.980;9.646;2024-01-10T23:40:29;53.15;;;22.70;;
28724;SDS011;43472;48.980;9.646;2024-01-10T23:45:31;43.67;;;20.90;;
28724;SDS011;43472;48.980;9.646;2024-01-10T23:50:34;45.10;;;19.88;;
28724;SDS011;43472;48.980;9.646;2024-01-10T23:55:36;46.70;;;19.80;;
